Time;durP1;ratioP1;P1;durP2;ratioP2;P2;SDS_P1;SDS_P2;PMS_P1;PMS_P2;Temp;Humidity;BMP_temperature;BMP_pressure;BME280_temperature;BME280_humidity;BME280_pressure;Samples;Min_cycle;Max_cycle;Signal;HPM_P1;HPM_P2
2022/04/21 06:07:51;;;;;;;;;6.25;6.25;;;;;18.69;48.31;100559.22;5106656;27;45507;-72
2022/04/21 06:10:16;;;;;;;;;7.50;7.50;;;;;18.86;48.87;100557.66;5016916;27;45774;-72
2022/04/21 06:12:42;;;;;;;;;6.00;4.25;;;;;19.14;48.58;100544.38;5000930;28;45856;-70
2022/04/21 06:15:08;;;;;;;;;10.50;8.25;;;;;19.55;48.06;100548.66;5001566;28;45809;-71
2022/04/21 06:17:33;;;;;;;;;15.00;7.50;;;;;19.99;47.33;100542.72;5012704;27;45552;-71
2022/04/21 06:19:59;;;;;;;;;12.75;7.25;;;;;20.41;46.10;100542.13;5028253;27;45485;-72
2022/04/21 06:22:24;;;;;;;;;11.00;7.25;;;;;20.84;45.78;100538.84;5003626;28;45663;-71
2022/04/21 06:24:49;;;;;;;;;5.25;5.25;;;;;21.24;45.17;100535.78;4994323;28;45403;-71
2022/04/21 06:27:14;;;;;;;;;6.00;6.00;;;;;21.61;44.51;100540.06;4996733;27;49059;-71
2022/04/21 06:29:40;;;;;;;;;6.25;6.25;;;;;21.95;44.00;100543.81;5009756;27;45346;-72
2022/04/21 06:32:05;;;;;;;;;11.50;8.00;;;;;22.25;42.96;100542.38;5003358;28;45301;-72
2022/04/21 06:34:32;;;;;;;;;7.75;6.00;;;;;22.56;42.23;100542.84;4992415;28;45398;-71
2022/04/21 06:36:59;;;;;;;;;7.50;7.50;;;;;22.80;42.37;100536.56;4993506;27;46069;-71
2022/04/21 06:39:25;;;;;;;;;7.67;7.00;;;;;23.03;41.38;100544.88;5036717;27;45644;-71
2022/04/21 06:41:50;;;;;;;;;7.33;6.00;;;;;23.23;40.96;100530.97;5011894;27;45612;-71
2022/04/21 06:49:43;;;;;;;;;7.33;6.67;;;;;23.78;40.36;100530.34;5074665;27;45385;-72
2022/04/21 06:52:08;;;;;;;;;7.00;5.33;;;;;23.93;39.94;100530.44;4992360;28;59372;-72
2022/04/21 06:54:34;;;;;;;;;6.33;6.33;;;;;24.06;39.33;100530.72;4992365;27;45574;-72
2022/04/21 06:56:59;;;;;;;;;5.00;5.00;;;;;24.15;39.31;100528.03;5000130;28;47972;-72
2022/04/21 06:59:24;;;;;;;;;6.00;6.00;;;;;24.32;39.10;100534.19;5057861;27;45600;-73
2022/04/21 07:01:50;;;;;;;;;8.00;7.33;;;;;24.42;38.76;100526.66;5021590;27;45776;-73
2022/04/21 07:04:15;;;;;;;;;7.33;5.33;;;;;24.52;38.51;100537.25;4984841;27;47288;-73
2022/04/21 07:06:41;;;;;;;;;5.00;5.00;;;;;24.60;38.29;100533.66;4983215;27;47319;-73
2022/04/21 07:09:06;;;;;;;;;6.33;5.00;;;;;24.68;38.06;100536.31;4983794;27;46118;-72
2022/04/21 07:11:31;;;;;;;;;5.00;5.00;;;;;24.76;38.02;100532.69;4989781;27;45953;-72
2022/04/21 07:13:57;;;;;;;;;6.00;5.33;;;;;24.85;37.94;100541.66;4980697;27;46194;-72
2022/04/21 07:16:23;;;;;;;;;7.00;7.00;;;;;24.91;37.77;100540.06;4985341;27;46086;-72
2022/04/21 07:18:48;;;;;;;;;7.00;5.33;;;;;24.98;37.54;100541.03;4983320;27;45705;-72
2022/04/21 07:21:15;;;;;;;;;9.00;7.00;;;;;25.05;37.45;100536.53;4970122;27;47190;-72
2022/04/21 07:23:41;;;;;;;;;6.33;6.00;;;;;25.11;37.21;100545.81;4967574;27;47028;-73
2022/04/21 07:26:07;;;;;;;;;7.33;5.33;;;;;25.17;36.76;100553.22;4985041;27;46468;-73
2022/04/21 07:28:32;;;;;;;;;5.00;5.00;;;;;25.14;36.84;100531.88;5001451;27;45319;-72
2022/04/21 07:30:58;;;;;;;;;7.67;5.67;;;;;25.21;36.97;100540.97;5017357;27;46715;-72
2022/04/21 07:33:23;;;;;;;;;6.67;6.00;;;;;25.25;36.67;100545.00;4987342;28;45690;-72
2022/04/21 07:35:48;;;;;;;;;6.33;6.33;;;;;25.28;36.45;100543.78;4983756;27;46236;-72
2022/04/21 07:38:14;;;;;;;;;6.33;5.00;;;;;25.30;36.53;100541.72;4972830;27;46929;-73
2022/04/21 07:40:39;;;;;;;;;6.00;6.00;;;;;25.34;36.35;100537.59;4971076;27;46340;-72
2022/04/21 07:43:08;;;;;;;;;5.00;5.00;;;;;25.37;36.31;100536.38;4978518;27;45753;-73
2022/04/21 07:45:40;;;;;;;;;6.00;6.00;;;;;25.40;36.03;100533.31;4972071;27;47316;-73
2022/04/21 07:48:05;;;;;;;;;4.33;4.33;;;;;25.41;35.87;100531.44;4971937;27;53025;-72
2022/04/21 07:50:31;;;;;;;;;5.33;5.00;;;;;25.46;35.86;100539.88;4968793;27;47156;-72
2022/04/21 07:53:14;;;;;;;;;7.00;6.33;;;;;25.47;36.04;100536.97;4969463;27;45501;-71
2022/04/21 07:55:45;;;;;;;;;6.33;5.00;;;;;25.49;35.72;100539.50;4969551;27;46002;-71
2022/04/21 07:58:10;;;;;;;;;6.00;6.00;;;;;25.49;35.69;100540.34;4966781;27;46111;-72
2022/04/21 08:00:40;;;;;;;;;4.00;4.00;;;;;25.51;35.94;100534.72;4973174;27;46868;-71
2022/04/21 08:03:06;;;;;;;;;4.67;4.00;;;;;25.52;35.75;100537.25;4969727;27;45643;-71
2022/04/21 08:05:32;;;;;;;;;3.67;3.67;;;;;25.52;35.70;100531.84;4978472;27;47768;-71
2022/04/21 08:07:58;;;;;;;;;7.00;5.33;;;;;25.56;36.08;100529.59;4967696;27;47168;-71
2022/04/21 08:10:25;;;;;;;;;6.00;6.00;;;;;25.59;36.21;100539.25;4969660;27;46522;-72
2022/04/21 08:12:52;;;;;;;;;6.67;5.67;;;;;25.59;36.15;100541.97;4971560;27;47155;-71
2022/04/21 08:15:29;;;;;;;;;5.00;5.00;;;;;25.67;36.18;100543.75;4966698;27;46129;-72
2022/04/21 08:17:57;;;;;;;;;6.33;4.67;;;;;25.70;36.23;100536.06;4969708;27;47012;-72
2022/04/21 08:20:24;;;;;;;;;4.67;4.67;;;;;25.75;35.75;100535.50;4979156;27;45821;-71
2022/04/21 08:22:50;;;;;;;;;6.00;6.00;;;;;25.78;35.28;100533.25;4967667;27;45781;-72
2022/04/21 08:33:27;;;;;;;;;10.67;8.00;;;;;25.76;33.28;100526.31;4981722;27;46222;-72
2022/04/21 08:35:58;;;;;;;;;8.67;8.00;;;;;25.80;33.26;100535.78;4966094;27;46726;-72
2022/04/21 08:38:24;;;;;;;;;6.00;6.00;;;;;25.79;33.69;100537.66;4972922;27;45516;-72
2022/04/21 08:40:54;;;;;;;;;7.67;7.67;;;;;25.80;33.61;100533.06;4970034;27;45630;-71
2022/04/21 08:43:20;;;;;;;;;7.33;7.33;;;;;25.84;33.88;100530.81;4970304;27;45800;-72
2022/04/21 08:45:47;;;;;;;;;6.00;6.00;;;;;25.86;34.05;100531.44;4973286;27;45994;-71
2022/04/21 08:48:14;;;;;;;;;6.00;6.00;;;;;25.88;33.97;100530.22;4979879;27;45769;-72
2022/04/21 08:50:41;;;;;;;;;6.00;6.00;;;;;25.92;34.17;100526.09;4969894;27;45488;-72
2022/04/21 08:53:07;;;;;;;;;7.00;7.00;;;;;25.95;34.02;100524.03;4965566;27;46761;-72
2022/04/21 08:55:33;;;;;;;;;6.00;6.00;;;;;25.99;34.16;100525.34;4976705;27;47232;-72
2022/04/21 08:58:00;;;;;;;;;7.33;6.67;;;;;26.01;34.11;100517.84;4967285;27;45549;-72
2022/04/21 09:00:26;;;;;;;;;3.00;3.00;;;;;26.07;34.40;100529.84;4993668;27;45493;-72
2022/04/21 09:02:51;;;;;;;;;6.00;6.00;;;;;26.12;34.45;100527.38;4983789;27;45483;-72
2022/04/21 09:05:20;;;;;;;;;5.00;5.00;;;;;26.15;34.60;100533.28;4998969;27;46074;-71
2022/04/21 09:07:47;;;;;;;;;7.33;6.67;;;;;26.18;34.56;100529.31;4985419;28;45607;-71
2022/04/21 09:10:14;;;;;;;;;6.33;6.33;;;;;26.21;34.41;100522.66;4984357;27;45465;-72
2022/04/21 09:12:44;;;;;;;;;7.33;6.33;;;;;26.24;34.56;100520.38;5006790;27;45840;-72
2022/04/21 09:15:14;;;;;;;;;6.33;6.33;;;;;26.26;34.71;100518.38;5003680;27;47327;-71
2022/04/21 09:17:41;;;;;;;;;8.33;8.00;;;;;26.29;33.43;100517.13;4984797;28;45485;-70
2022/04/21 09:20:08;;;;;;;;;7.33;6.67;;;;;26.30;32.91;100516.94;4991146;27;45707;-71
2022/04/21 09:22:33;;;;;;;;;9.33;6.67;;;;;26.30;32.19;100507.94;5020291;27;45563;-72
2022/04/21 09:24:59;;;;;;;;;8.67;8.67;;;;;26.29;32.82;100511.69;5025437;27;45567;-71
2022/04/21 09:27:48;;;;;;;;;8.00;8.00;;;;;26.27;32.62;100511.88;4995966;27;45469;-71
2022/04/21 09:30:13;;;;;;;;;7.67;7.67;;;;;26.24;32.49;100506.78;4978792;27;45603;-71
2022/04/21 09:32:59;;;;;;;;;10.00;9.33;;;;;26.23;32.44;100512.44;4993539;27;46350;-71
2022/04/21 09:35:29;;;;;;;;;8.33;7.00;;;;;26.23;32.55;100509.72;5033626;27;47073;-71
2022/04/21 09:37:57;;;;;;;;;7.67;6.33;;;;;26.21;32.54;100509.91;4988635;28;45870;-71
2022/04/21 09:40:24;;;;;;;;;9.00;8.00;;;;;26.21;32.17;100500.91;5025142;27;47184;-71
2022/04/21 09:42:54;;;;;;;;;8.33;8.33;;;;;26.20;32.28;100496.50;5024262;27;45560;-71
2022/04/21 09:48:20;;;;;;;;;12.00;9.00;;;;;26.11;32.69;100493.88;4982561;28;45676;-71
2022/04/21 09:50:51;;;;;;;;;9.67;7.00;;;;;26.12;32.87;100490.13;4984604;28;45425;-71
2022/04/21 09:53:19;;;;;;;;;9.00;8.33;;;;;26.12;32.60;100489.31;5013608;27;45835;-71
2022/04/21 09:55:46;;;;;;;;;9.00;9.00;;;;;26.12;32.75;100494.75;5026906;27;46141;-71
2022/04/21 09:58:12;;;;;;;;;10.33;9.00;;;;;26.14;33.01;100492.66;4989636;28;45446;-71
2022/04/21 10:00:39;;;;;;;;;8.33;6.67;;;;;26.16;33.07;100486.00;4984048;28;45627;-71
2022/04/21 10:03:06;;;;;;;;;11.67;8.33;;;;;26.18;33.14;100478.50;4987579;27;45749;-71
2022/04/21 10:05:32;;;;;;;;;7.33;7.00;;;;;26.23;33.21;100477.09;5004527;27;49775;-72
2022/04/21 10:08:03;;;;;;;;;9.67;6.33;;;;;26.26;33.32;100476.72;4982244;28;45520;-71
2022/04/21 10:10:29;;;;;;;;;6.33;6.33;;;;;26.30;33.41;100478.88;5005543;27;45650;-71
2022/04/21 10:12:57;;;;;;;;;8.33;8.33;;;;;26.35;33.46;100472.00;5008578;27;45529;-72
2022/04/21 10:15:24;;;;;;;;;8.00;7.33;;;;;26.36;33.67;100462.81;5010188;27;45771;-72
2022/04/21 10:17:49;;;;;;;;;6.33;6.33;;;;;26.41;33.60;100473.94;4981344;28;48981;-71
2022/04/21 10:20:15;;;;;;;;;8.00;8.00;;;;;26.44;33.85;100463.50;4985552;28;45537;-71
2022/04/21 10:22:41;;;;;;;;;8.33;7.33;;;;;26.48;33.56;100463.94;5043937;28;45423;-71
2022/04/21 10:25:07;;;;;;;;;7.33;6.00;;;;;26.51;33.40;100455.41;4991029;27;46126;-71
2022/04/21 10:27:36;;;;;;;;;7.33;7.33;;;;;26.55;32.37;100451.25;4998964;27;45490;-72
2022/04/21 10:30:11;;;;;;;;;9.00;9.00;;;;;26.56;31.82;100444.78;4966039;27;46137;-72
2022/04/21 10:32:48;;;;;;;;;9.67;6.33;;;;;26.54;30.94;100452.28;4980691;27;45718;-71
2022/04/21 10:35:23;;;;;;;;;10.33;8.67;;;;;26.55;31.58;100447.69;4967831;27;46004;-72
2022/04/21 10:38:11;;;;;;;;;10.33;7.33;;;;;26.53;31.53;100453.31;4978599;27;46121;-71
2022/04/21 10:40:55;;;;;;;;;9.00;9.00;;;;;26.49;31.82;100448.47;4969029;27;45588;-71
2022/04/21 10:43:20;;;;;;;;;9.33;8.67;;;;;26.46;32.01;100444.25;4971897;27;45558;-72
2022/04/21 10:46:03;;;;;;;;;7.33;7.00;;;;;26.46;31.76;100444.25;4974753;27;46950;-72
2022/04/21 10:48:43;;;;;;;;;9.00;9.00;;;;;26.43;31.53;100437.34;4967303;27;46144;-72
2022/04/21 10:51:08;;;;;;;;;8.33;8.00;;;;;26.41;31.67;100427.69;4976720;27;46483;-72
2022/04/21 10:59:47;;;;;;;;;10.67;8.67;;;;;26.37;31.22;100431.84;4973826;27;45584;-72
2022/04/21 11:02:14;;;;;;;;;9.33;9.33;;;;;26.34;31.16;100424.91;4968949;27;51341;-73
2022/04/21 11:04:39;;;;;;;;;10.00;7.33;;;;;26.30;31.41;100419.03;4981876;27;45701;-73
2022/04/21 11:07:08;;;;;;;;;10.00;9.00;;;;;26.27;31.86;100416.69;4967588;27;46318;-72
2022/04/21 11:09:41;;;;;;;;;10.33;8.00;;;;;26.29;31.60;100413.75;4969467;27;47359;-71
2022/04/21 11:12:07;;;;;;;;;8.00;8.00;;;;;26.30;31.85;100410.84;4976315;27;47120;-72
2022/04/21 11:14:36;;;;;;;;;9.00;9.00;;;;;26.33;32.02;100422.38;4971301;27;47118;-72
2022/04/21 11:17:05;;;;;;;;;6.67;6.67;;;;;26.34;30.53;100410.44;4977316;27;45776;-72
2022/04/21 11:19:51;;;;;;;;;12.33;9.67;;;;;26.36;31.38;100409.22;4967652;27;45851;-72
2022/04/21 11:22:36;;;;;;;;;9.33;7.00;;;;;26.35;31.60;100393.94;4970848;27;45807;-71
2022/04/21 11:25:03;;;;;;;;;10.00;9.00;;;;;26.40;31.58;100402.34;4980302;27;45886;-71
2022/04/21 11:27:30;;;;;;;;;9.33;9.33;;;;;26.41;31.36;100390.41;4969737;27;46153;-71
2022/04/21 11:30:00;;;;;;;;;11.33;10.33;;;;;26.46;31.58;100389.84;4970734;27;45619;-71
2022/04/21 11:32:25;;;;;;;;;8.33;7.33;;;;;26.47;32.11;100383.34;4969340;27;45506;-71
2022/04/21 11:35:12;;;;;;;;;8.33;7.00;;;;;26.53;31.78;100382.56;4988795;27;45545;-71
2022/04/21 11:37:59;;;;;;;;;8.33;8.33;;;;;26.57;31.97;100380.31;4977807;27;47522;-71
2022/04/21 11:40:36;;;;;;;;;9.00;8.00;;;;;26.58;31.58;100379.25;4968797;27;45671;-71
2022/04/21 11:43:05;;;;;;;;;9.00;9.00;;;;;26.61;31.60;100375.28;4968635;27;46111;-71
2022/04/21 11:45:34;;;;;;;;;10.67;7.67;;;;;26.63;31.77;100374.06;4978574;27;45738;-71
2022/04/21 11:48:00;;;;;;;;;6.00;6.00;;;;;26.64;31.56;100366.75;4971668;27;46121;-72
2022/04/21 11:50:30;;;;;;;;;7.00;6.67;;;;;26.66;31.89;100373.66;4976278;27;46048;-72
2022/04/21 11:52:57;;;;;;;;;8.33;6.67;;;;;26.69;31.39;100373.25;4970430;27;45699;-70
2022/04/21 11:55:25;;;;;;;;;7.00;6.33;;;;;26.70;31.67;100374.09;4974839;27;47234;-71
2022/04/21 11:57:51;;;;;;;;;9.67;9.67;;;;;26.72;31.88;100380.19;4973640;27;45563;-71
2022/04/21 12:06:27;;;;;;;;;8.00;8.00;;;;;26.74;32.03;100366.38;4973437;27;46298;-71
2022/04/21 12:08:31;;;;;;;;;6.33;5.33;;;;;26.87;32.00;100357.44;4969869;27;50294;-71
2022/04/21 12:10:56;;;;;;;;;6.33;6.33;;;;;26.93;32.68;100353.94;4969013;27;46869;-71
2022/04/21 12:13:22;;;;;;;;;10.33;8.33;;;;;26.96;32.71;100351.69;4975404;27;45518;-70
2022/04/21 12:15:47;;;;;;;;;8.00;8.00;;;;;27.03;32.25;100362.63;4967508;27;45804;-71
2022/04/21 12:18:12;;;;;;;;;9.33;8.00;;;;;27.08;32.49;100364.72;4975367;27;68619;-71
2022/04/21 12:20:52;;;;;;;;;7.00;7.00;;;;;27.13;32.35;100354.06;4971576;27;45537;-71
2022/04/21 12:23:25;;;;;;;;;8.00;8.00;;;;;27.16;32.87;100355.53;4964964;27;46188;-71
2022/04/21 12:25:51;;;;;;;;;7.00;6.00;;;;;27.20;33.05;100341.31;4970341;27;45650;-72
2022/04/21 12:28:16;;;;;;;;;8.00;6.00;;;;;27.24;33.12;100349.91;4970959;27;46367;-70
2022/04/21 12:30:41;;;;;;;;;7.00;7.00;;;;;27.26;32.75;100342.38;4969621;27;45755;-72
2022/04/21 12:33:07;;;;;;;;;8.00;7.00;;;;;27.27;32.70;100335.91;4973918;27;45901;-71
2022/04/21 12:35:50;;;;;;;;;7.00;7.00;;;;;27.33;33.06;100342.41;4967357;27;47167;-70
2022/04/21 12:41:01;;;;;;;;;6.00;6.00;;;;;27.40;33.60;100340.53;4966923;27;45829;-71
2022/04/21 12:43:31;;;;;;;;;5.67;5.67;;;;;27.40;33.22;100336.97;4968694;27;45760;-71
2022/04/21 12:46:00;;;;;;;;;6.33;5.33;;;;;27.45;33.72;100337.19;4970505;27;46147;-71
2022/04/21 12:48:27;;;;;;;;;8.33;6.67;;;;;27.46;33.83;100334.28;5069056;27;48379;-71
2022/04/21 12:50:54;;;;;;;;;7.00;7.00;;;;;27.47;33.71;100327.78;4970476;27;45804;-71
2022/04/21 12:53:31;;;;;;;;;6.00;5.00;;;;;27.49;33.39;100330.28;4976286;27;45877;-72
2022/04/21 12:56:09;;;;;;;;;3.33;3.33;;;;;27.52;33.58;100327.16;4969368;27;45571;-71
2022/04/21 12:58:34;;;;;;;;;8.33;6.67;;;;;27.55;33.39;100323.19;4986601;27;46079;-72
2022/04/21 13:01:05;;;;;;;;;6.00;6.00;;;;;27.57;34.08;100315.63;4964690;27;49371;-72
2022/04/21 13:03:31;;;;;;;;;6.67;6.00;;;;;27.59;33.70;100310.84;4970307;27;45765;-73
2022/04/21 13:05:59;;;;;;;;;4.33;4.33;;;;;27.59;33.72;100303.47;4975450;27;45572;-72
2022/04/21 13:08:26;;;;;;;;;7.33;7.33;;;;;27.64;33.75;100308.34;4968308;27;48929;-72
2022/04/21 13:10:54;;;;;;;;;6.67;6.67;;;;;27.66;34.04;100308.97;4969962;27;47211;-71
2022/04/21 13:13:19;;;;;;;;;5.00;5.00;;;;;27.68;34.35;100306.03;4967558;27;46071;-72
2022/04/21 13:15:45;;;;;;;;;5.67;5.67;;;;;27.69;34.49;100292.22;4966714;27;46211;-71
2022/04/21 13:18:12;;;;;;;;;6.33;5.33;;;;;27.72;33.89;100299.97;4972976;27;46261;-72
2022/04/21 13:23:24;;;;;;;;;6.00;6.00;;;;;27.73;34.12;100285.31;4967900;27;45751;-72
2022/04/21 13:25:49;;;;;;;;;6.00;6.00;;;;;27.76;34.54;100292.22;4977645;27;45802;-72
2022/04/21 13:28:15;;;;;;;;;6.00;6.00;;;;;27.77;34.40;100287.59;4964800;27;46740;-71
2022/04/21 13:30:40;;;;;;;;;5.67;5.67;;;;;27.76;34.76;100294.94;4977663;27;47107;-72
2022/04/21 13:33:23;;;;;;;;;5.67;5.00;;;;;27.75;34.25;100294.09;4966050;27;45618;-72
2022/04/21 13:35:53;;;;;;;;;4.67;4.67;;;;;27.73;34.23;100293.47;4973060;27;45568;-71
2022/04/21 13:38:19;;;;;;;;;6.33;5.33;;;;;27.75;34.78;100288.66;4978440;27;45647;-71
2022/04/21 13:40:44;;;;;;;;;5.00;5.00;;;;;27.75;34.32;100279.66;4967157;27;45580;-72
2022/04/21 13:43:10;;;;;;;;;5.67;5.67;;;;;27.74;34.38;100267.88;4966168;27;47106;-72
2022/04/21 13:45:39;;;;;;;;;4.67;4.67;;;;;27.74;34.81;100281.53;4976551;27;45582;-71
2022/04/21 13:48:09;;;;;;;;;5.67;5.67;;;;;27.77;34.13;100276.69;4967321;27;47201;-71
2022/04/21 13:50:35;;;;;;;;;6.67;6.33;;;;;27.77;34.81;100273.97;4974514;27;46577;-72
2022/04/21 13:53:02;;;;;;;;;7.33;5.33;;;;;27.76;34.69;100267.69;4966975;27;47377;-73
2022/04/21 13:55:31;;;;;;;;;5.33;4.67;;;;;27.78;34.92;100256.56;4968772;27;46077;-72
2022/04/21 13:57:57;;;;;;;;;6.00;6.00;;;;;27.79;34.93;100252.78;4971093;27;47123;-73
2022/04/21 14:00:24;;;;;;;;;7.00;7.00;;;;;27.80;34.31;100262.66;4965984;27;45621;-72
2022/04/21 14:02:49;;;;;;;;;7.00;7.00;;;;;27.81;34.78;100269.78;4968329;27;45508;-72
2022/04/21 14:05:15;;;;;;;;;5.00;5.00;;;;;27.82;34.51;100258.66;4977689;27;45916;-72
2022/04/21 14:07:40;;;;;;;;;8.33;6.67;;;;;27.83;34.57;100245.88;4966680;27;47215;-72
2022/04/21 14:10:05;;;;;;;;;4.00;4.00;;;;;27.84;34.39;100245.66;4975735;27;47422;-72
2022/04/21 14:12:31;;;;;;;;;5.00;5.00;;;;;27.84;34.52;100240.19;4967086;27;47212;-73
2022/04/21 14:14:57;;;;;;;;;5.00;5.00;;;;;27.84;34.89;100221.09;4964077;27;45786;-72
2022/04/21 14:17:22;;;;;;;;;5.00;5.00;;;;;27.86;34.66;100239.97;4979122;27;47201;-72
2022/04/21 14:19:48;;;;;;;;;6.33;6.33;;;;;27.86;35.22;100229.94;4966614;27;46631;-72
2022/04/21 14:22:13;;;;;;;;;5.67;4.67;;;;;27.86;35.16;100238.09;4966532;27;46209;-73
2022/04/21 14:24:38;;;;;;;;;6.00;6.00;;;;;27.87;35.12;100233.47;4976514;27;47211;-72
2022/04/21 14:27:05;;;;;;;;;5.00;5.00;;;;;27.87;34.73;100236.19;4965507;27;47097;-73
2022/04/21 14:29:30;;;;;;;;;5.00;5.00;;;;;27.86;34.80;100227.19;4968893;27;46120;-74
2022/04/21 14:31:55;;;;;;;;;4.00;4.00;;;;;27.88;35.19;100225.09;4976475;27;45616;-71
2022/04/21 14:34:21;;;;;;;;;5.33;5.33;;;;;27.90;35.48;100213.16;4971524;27;46414;-71
2022/04/21 14:36:46;;;;;;;;;6.67;5.67;;;;;27.92;35.45;100211.03;4977384;27;46394;-71
2022/04/21 14:44:04;;;;;;;;;5.67;5.67;;;;;27.95;34.84;100210.63;4968869;27;46176;-70
2022/04/21 14:44:59;;;;;;;;;4.33;4.33;;;;;27.96;34.95;100212.31;4978687;27;45643;-71
2022/04/21 14:47:26;;;;;;;;;6.67;6.67;;;;;27.95;35.47;100213.34;4969051;27;45978;-71
2022/04/21 14:49:51;;;;;;;;;5.33;4.33;;;;;27.97;35.55;100203.06;4979768;27;45836;-73
2022/04/21 14:52:19;;;;;;;;;7.33;6.33;;;;;27.97;35.11;100209.38;4965025;27;45548;-73
2022/04/21 14:54:45;;;;;;;;;7.00;5.00;;;;;27.93;35.66;100207.25;4965170;27;47473;-73
2022/04/21 14:57:10;;;;;;;;;6.00;6.00;;;;;27.94;35.00;100196.16;4970835;27;45758;-72
2022/04/21 14:59:35;;;;;;;;;4.67;4.67;;;;;27.99;35.15;100201.81;4968351;27;45721;-72
2022/04/21 15:02:01;;;;;;;;;5.33;4.67;;;;;28.01;35.22;100209.78;4967541;27;46209;-72
2022/04/21 15:04:28;;;;;;;;;6.67;5.33;;;;;28.01;32.41;100198.88;4969813;27;46130;-70
2022/04/21 15:06:54;;;;;;;;;7.00;7.00;;;;;27.99;30.82;100199.06;4967761;27;45800;-70
2022/04/21 15:09:19;;;;;;;;;7.00;7.00;;;;;27.92;30.59;100201.00;4966917;27;45583;-72
2022/04/21 15:11:45;;;;;;;;;7.33;5.67;;;;;27.87;30.47;100198.03;4968355;27;47131;-72
2022/04/21 15:14:11;;;;;;;;;7.67;7.00;;;;;27.79;30.21;100196.34;4967908;27;46113;-72
2022/04/21 15:16:37;;;;;;;;;8.00;8.00;;;;;27.70;30.93;100192.16;4990420;27;46038;-72
2022/04/21 15:19:03;;;;;;;;;10.00;7.33;;;;;27.60;31.04;100193.44;4968031;27;45785;-71
2022/04/21 15:21:28;;;;;;;;;10.67;9.00;;;;;27.53;30.59;100192.56;4968478;27;46037;-72
2022/04/21 15:23:54;;;;;;;;;9.33;8.00;;;;;27.43;30.90;100197.59;4976262;27;45651;-72
2022/04/21 15:26:19;;;;;;;;;9.00;7.33;;;;;27.35;30.66;100190.47;4974256;27;45490;-71
2022/04/21 15:28:49;;;;;;;;;6.00;6.00;;;;;27.26;31.02;100192.53;4971950;27;46036;-72
2022/04/21 15:31:17;;;;;;;;;7.00;7.00;;;;;27.18;30.95;100182.66;4973504;27;45502;-72
2022/04/21 15:33:42;;;;;;;;;7.00;7.00;;;;;27.14;30.75;100180.59;4968902;27;46988;-72
2022/04/21 15:36:10;;;;;;;;;14.33;9.67;;;;;27.06;30.77;100185.16;4966730;27;61249;-72
2022/04/21 15:38:35;;;;;;;;;6.67;6.67;;;;;26.98;31.16;100182.66;4972640;27;47166;-71
2022/04/21 15:41:01;;;;;;;;;6.67;6.33;;;;;26.94;31.15;100179.47;4964891;27;45620;-71
2022/04/21 15:43:26;;;;;;;;;8.33;8.33;;;;;26.91;31.83;100179.88;4973275;27;47556;-71
2022/04/21 15:45:51;;;;;;;;;9.67;8.00;;;;;26.90;31.59;100174.63;4967916;27;46101;-71
2022/04/21 15:48:18;;;;;;;;;6.67;6.67;;;;;26.92;32.19;100180.69;4968870;27;45619;-72
2022/04/21 15:50:45;;;;;;;;;8.00;7.67;;;;;26.94;32.05;100171.31;4975476;27;46996;-72
2022/04/21 15:58:55;;;;;;;;;11.00;8.33;;;;;27.08;32.41;100155.84;4971015;27;45704;-72
2022/04/21 16:01:23;;;;;;;;;6.67;6.00;;;;;27.14;32.86;100154.16;4965372;27;45652;-72
2022/04/21 16:03:49;;;;;;;;;10.00;7.67;;;;;27.16;32.63;100152.09;4981076;27;45653;-71
2022/04/21 16:06:15;;;;;;;;;6.33;6.33;;;;;27.20;32.28;100164.25;4965813;27;46943;-73
2022/04/21 16:08:42;;;;;;;;;9.00;7.67;;;;;27.22;32.41;100170.31;4965308;27;45507;-73
2022/04/21 16:11:08;;;;;;;;;7.00;7.00;;;;;27.22;32.20;100159.41;4966789;27;45564;-71
2022/04/21 16:13:33;;;;;;;;;7.33;5.67;;;;;27.22;31.88;100169.50;4968813;27;47172;-71
2022/04/21 16:15:59;;;;;;;;;6.33;6.33;;;;;27.21;30.96;100159.63;4968197;27;46160;-71
2022/04/21 16:18:24;;;;;;;;;6.67;6.33;;;;;27.20;31.48;100164.25;4978190;27;45977;-71
2022/04/21 16:20:49;;;;;;;;;9.67;8.33;;;;;27.18;31.01;100166.31;4966005;27;47214;-72
2022/04/21 16:23:15;;;;;;;;;10.33;10.33;;;;;27.15;31.41;100164.03;4967692;27;46820;-72
2022/04/21 16:25:40;;;;;;;;;10.67;9.67;;;;;27.12;30.92;100174.47;4966770;27;49318;-71
2022/04/21 16:28:05;;;;;;;;;7.67;7.00;;;;;27.11;31.12;100165.50;4964540;27;45610;-71
2022/04/21 16:30:31;;;;;;;;;8.00;8.00;;;;;27.07;31.01;100159.63;4964613;27;45695;-71
2022/04/21 16:32:57;;;;;;;;;8.67;8.33;;;;;27.06;30.90;100162.56;4984614;27;46105;-72
2022/04/21 16:35:22;;;;;;;;;8.33;8.00;;;;;27.03;31.09;100173.84;4966050;27;47248;-72
2022/04/21 16:37:48;;;;;;;;;9.33;9.33;;;;;26.97;31.16;100164.59;4976055;27;45635;-72
2022/04/21 16:40:13;;;;;;;;;11.00;7.00;;;;;26.95;30.78;100166.72;4973058;27;45622;-72
2022/04/21 16:42:40;;;;;;;;;10.00;8.00;;;;;26.92;30.65;100159.75;4963896;27;45770;-72
2022/04/21 16:45:07;;;;;;;;;13.00;8.67;;;;;26.87;30.75;100159.53;4966320;27;45639;-72
2022/04/21 16:47:32;;;;;;;;;10.00;7.00;;;;;26.86;30.73;100160.59;4965228;27;47228;-72
2022/04/21 16:49:58;;;;;;;;;6.33;5.67;;;;;26.84;30.42;100162.66;4963475;27;45788;-71
2022/04/21 16:52:24;;;;;;;;;6.00;6.00;;;;;26.82;30.81;100154.69;4972163;27;46922;-72
2022/04/21 16:54:49;;;;;;;;;6.33;6.33;;;;;26.79;30.42;100155.13;4963329;27;47391;-72
2022/04/21 16:57:15;;;;;;;;;6.67;5.33;;;;;26.79;30.54;100160.56;4968263;27;45575;-69
2022/04/21 16:59:40;;;;;;;;;6.33;5.00;;;;;26.77;30.28;100157.19;4971539;27;45481;-69
2022/04/21 17:04:50;;;;;;;;;4.67;4.67;;;;;26.72;30.08;100162.41;4972917;27;47184;-71
2022/04/21 17:07:16;;;;;;;;;6.33;5.33;;;;;26.70;30.17;100150.91;4964413;27;45533;-73
2022/04/21 17:09:41;;;;;;;;;7.00;6.00;;;;;26.68;30.17;100151.09;4965331;27;45667;-72
2022/04/21 17:12:08;;;;;;;;;5.00;5.00;;;;;26.68;30.05;100169.31;4967852;27;46363;-73
2022/04/21 17:14:33;;;;;;;;;4.67;4.67;;;;;26.66;30.40;100166.81;4964902;27;45995;-71
2022/04/21 17:16:59;;;;;;;;;6.33;5.00;;;;;26.62;30.35;100161.97;4970116;27;45474;-72
2022/04/21 17:19:24;;;;;;;;;8.00;5.33;;;;;26.62;30.35;100151.94;4970268;27;46070;-72
2022/04/21 17:21:49;;;;;;;;;6.67;5.67;;;;;26.62;30.46;100161.97;4965327;27;45768;-72
2022/04/21 17:24:15;;;;;;;;;6.00;5.33;;;;;26.62;30.54;100161.97;4972231;27;47475;-71
2022/04/21 17:26:40;;;;;;;;;6.00;5.00;;;;;26.56;30.18;100156.28;4965610;27;45721;-73
2022/04/21 17:29:05;;;;;;;;;4.33;4.33;;;;;26.58;30.17;100173.25;4965280;27;45518;-71
2022/04/21 17:31:31;;;;;;;;;5.00;5.00;;;;;26.56;30.25;100161.75;4978918;27;45520;-71
2022/04/21 17:33:57;;;;;;;;;4.33;4.00;;;;;26.54;30.08;100166.56;4966026;27;46107;-72
2022/04/21 17:36:22;;;;;;;;;7.67;6.67;;;;;26.55;30.57;100170.09;4964393;27;45751;-72
2022/04/21 17:38:47;;;;;;;;;4.00;4.00;;;;;26.54;30.47;100161.13;4972491;27;45606;-72
2022/04/21 17:41:13;;;;;;;;;7.00;5.00;;;;;26.54;30.37;100169.28;4975091;27;45530;-72
2022/04/21 17:43:38;;;;;;;;;3.33;3.33;;;;;26.54;30.43;100169.28;4978940;27;46096;-71
2022/04/21 17:46:04;;;;;;;;;6.67;5.33;;;;;26.53;30.45;100162.13;4969696;27;45667;-72
2022/04/21 17:48:30;;;;;;;;;7.00;7.00;;;;;26.52;30.40;100162.38;4966021;27;45997;-71
2022/04/21 17:50:55;;;;;;;;;8.67;8.67;;;;;26.47;30.64;100152.06;4965938;27;46125;-71
2022/04/21 17:53:21;;;;;;;;;7.67;7.00;;;;;26.49;30.76;100155.44;4977658;27;46258;-72
2022/04/21 17:55:46;;;;;;;;;10.33;8.33;;;;;26.48;30.68;100150.19;4966504;27;46711;-71
2022/04/21 17:58:11;;;;;;;;;6.67;6.33;;;;;26.52;30.94;100167.81;4978731;27;46878;-71
2022/04/21 18:00:37;;;;;;;;;9.67;7.33;;;;;26.52;30.95;100156.91;4974869;27;47849;-71
2022/04/21 18:03:02;;;;;;;;;7.33;7.00;;;;;26.51;31.01;100160.66;4977428;27;45500;-71
2022/04/21 18:05:28;;;;;;;;;8.00;6.33;;;;;26.50;30.93;100168.00;5050033;27;45393;-72
2022/04/21 18:07:53;;;;;;;;;6.00;6.00;;;;;26.51;31.46;100166.09;4990289;28;45391;-71
2022/04/21 18:10:20;;;;;;;;;6.33;6.33;;;;;26.50;31.14;100159.84;5005930;27;45501;-71
2022/04/21 18:12:45;;;;;;;;;7.00;6.00;;;;;26.51;31.12;100166.09;4986192;28;45442;-71
2022/04/21 18:15:11;;;;;;;;;6.33;6.33;;;;;26.51;31.19;100166.94;4987991;28;45554;-71
2022/04/21 18:17:36;;;;;;;;;10.00;7.00;;;;;26.52;31.07;100165.91;4987098;28;45799;-71